nws-alerts: Checking more than four warning/county codes can delay the loading of your pages. You should use a cron job to get the data.

Nearby METAR Reports

 

KSJC - San Jose, California, USA
Distance from station: NE 9mi, 14km
Updated: Sun, 18-Feb-2018 10:53pm EST
Few Clouds
Few Clouds
 Wind from W
Wind: W 17 mph , 28 km/h, Gust: 29 mph , 46 km/h
Temperature: 46°F , 8°C
Wind Chill: 39°F , 4°C
Dew Point: 34°F , 1°C
Humidity: 62%
Barometer: 29.97 inHg , 1014.9 hPa
Clouds: Few Clouds
Visibility: 10 miles , 16 km
Cloud details: Few Clouds 1800 ft
2018/02/19 03:53 KSJC 190353Z 28015G25KT 10SM FEW018 08/01 A2997 RMK AO2 PK WND 27026/0332 SLP146 T00830011
KNUQ - Moffett Nas/Mtn, California, USA
Distance from station: N 9mi, 14km
Updated: Sun, 18-Feb-2018 10:56pm EST
Clear
Clear
 Wind from WNW
Wind: WNW 7 mph , 11 km/h
Temperature: 46°F , 8°C
Wind Chill: 42°F , 6°C
Dew Point: 34°F , 1°C
Humidity: 62%
Barometer: 29.99 inHg , 1015.6 hPa
Clouds: Clear
Visibility: 10 miles , 16 km
2018/02/19 03:56 KNUQ 190356Z 29006KT 10SM CLR 08/01 A2999 RMK AO2 SLP157 T00780011
 
KPAO - Palo Alto, California, USA
Distance from station: NNW 14mi, 23km
Updated: Sun, 18-Feb-2018 10:47pm EST
Few Clouds
Few Clouds
 Wind from WNW
Wind: WNW 17 mph , 28 km/h, Gust: 25 mph , 41 km/h
Clouds: Few Clouds
Visibility: 10 miles , 16 km
Cloud details: Few Clouds 3500 ft
2018/02/19 03:47 KPAO 190347Z 29015G22KT 10SM FEW035 --/-- A2997
KRHV - San Jose/Reid, California, USA
Distance from station: ENE 12mi, 19km
Updated: Sun, 18-Feb-2018 10:47pm EST
Mostly cloudy
Mostly cloudy
 Wind from NNW
Wind: NNW 15 mph , 24 km/h
Temperature: 46°F , 8°C
Wind Chill: 40°F , 4°C
Dew Point: 34°F , 1°C
Humidity: 62%
Barometer: 29.96 inHg , 1014.6 hPa
Clouds: Mostly cloudy
Visibility: 10 miles , 16 km
Cloud details: Mostly cloudy 3500 ft
2018/02/19 03:47 KRHV 190347Z 33013KT 10SM BKN035 08/01 A2996
 
KOAK - Oakland, California, USA
Distance from station: NNW 31mi, 50km
Updated: Sun, 18-Feb-2018 10:53pm EST
Few Clouds
Few Clouds
 Wind from NW
Wind: NW 18 mph , 30 km/h, Gust: 30 mph , 48 km/h
Temperature: 46°F , 8°C
Wind Chill: 39°F , 4°C
Dew Point: 32°F , 0°C
Humidity: 57%
Barometer: 29.96 inHg , 1014.6 hPa
Clouds: Few Clouds
Visibility: 10 miles , 16 km
Cloud details: Few Clouds 2000 ft
2018/02/19 03:53 KOAK 190353Z 32016G26KT 10SM FEW020 08/00 A2996 RMK AO2 PK WND 30029/0319 SLP145 T00830000
KSQL - San Carlos Airpo, California, USA
Distance from station: NW 21mi, 34km
Updated: Sun, 18-Feb-2018 10:55pm EST
Clear
Clear
 Wind from W
Wind: W 17 mph , 28 km/h, Gust: 25 mph , 41 km/h
Temperature: 46°F , 8°C
Wind Chill: 39°F , 4°C
Dew Point: 32°F , 0°C
Humidity: 57%
Barometer: 29.97 inHg , 1014.9 hPa
Clouds: Clear
Visibility: 10 miles , 16 km
2018/02/19 03:55 KSQL 190355Z 28015G22KT 10SM SKC 08/00 A2997
 
KSFO - San Francisco, California, USA
Distance from station: NW 30mi, 49km
Updated: Sun, 18-Feb-2018 10:56pm EST
Few Clouds
Few Clouds
 Wind from WNW
Wind: WNW 22 mph , 35 km/h, Gust: 35 mph , 56 km/h
Temperature: 48°F , 9°C
Wind Chill: 41°F , 5°C
Dew Point: 34°F , 1°C
Humidity: 58%
Barometer: 29.97 inHg , 1014.9 hPa
Clouds: Few Clouds
Visibility: 10 miles , 16 km
Cloud details: Few Clouds 2100 ft
2018/02/19 03:56 KSFO 190356Z 29019G30KT 10SM FEW021 09/01 A2997 RMK AO2 PK WND 28033/0259 SLP148 T00890006 $
KE16 - San Martin, California, USA
Distance from station: ESE 27mi, 43km
Updated: Sun, 18-Feb-2018 10:55pm EST
Mostly cloudy
Mostly cloudy
 Wind from NW
Wind: NW 8 mph , 13 km/h
Temperature: 46°F , 8°C
Wind Chill: 42°F , 6°C
Dew Point: 32°F , 0°C
Humidity: 57%
Barometer: 29.99 inHg , 1015.6 hPa
Clouds: Mostly cloudy
Visibility: 10 miles , 16 km
Cloud details: Mostly cloudy 3700 ft
2018/02/19 03:55 KE16 190355Z AUTO 32007KT 10SM BKN037 08/00 A2999 RMK AO2
 
KWVI - Watsonville, California, USA
Distance from station: SSE 27mi, 44km
Updated: Sun, 18-Feb-2018 10:53pm EST
Clear
Clear
 Wind from WSW
Wind: WSW 9 mph , 15 km/h
Temperature: 46°F , 8°C
Wind Chill: 41°F , 5°C
Dew Point: 34°F , 1°C
Humidity: 62%
Barometer: 29.98 inHg , 1015.2 hPa
Clouds: Clear
Visibility: 10 miles , 16 km
2018/02/19 03:53 KWVI 190353Z AUTO 25008KT 10SM CLR 08/01 A2998 RMK AO2 SLP153 T00780006
KHAF - Half Moon Bay, California, USA
Distance from station: WNW 31mi, 50km
Updated: Sun, 18-Feb-2018 10:55pm EST
Mostly cloudy
Mostly cloudy
 Wind from NNW
Wind: NNW 24 mph , 39 km/h, Gust: 32 mph , 52 km/h
Temperature: 46°F , 8°C
Wind Chill: 38°F , 3°C
Dew Point: 36°F , 2°C
Humidity: 66%
Barometer: 29.96 inHg , 1014.6 hPa
Clouds: Mostly cloudy
Visibility: 8 miles , 13 km
Cloud details: Mostly cloudy 3200 ft
2018/02/19 03:55 KHAF 190355Z AUTO 34021G28KT 8SM BKN032 08/02 A2996 RMK AO2
 
KHWD - Hayward, California, USA
Distance from station: N 28mi, 44km
Updated: Sun, 18-Feb-2018 10:54pm EST
Few Clouds
Few Clouds
 Wind from NW
Wind: NW 17 mph , 28 km/h, Gust: 24 mph , 39 km/h
Temperature: 48°F , 9°C
Wind Chill: 42°F , 6°C
Dew Point: 27°F , -3°C
Humidity: 43%
Barometer: 29.97 inHg , 1014.9 hPa
Clouds: Few Clouds
Visibility: 10 miles , 16 km
Cloud details: Few Clouds 2000 ft
2018/02/19 03:54 KHWD 190354Z 32015G21KT 10SM FEW020 09/M03 A2997 RMK AO2 PK WND 31028/0331 SLP157 T00891033
KLVK - Livermore, California, USA
Distance from station: NNE 31mi, 51km
Updated: Sun, 18-Feb-2018 10:53pm EST
Clear
Clear
 Wind from W
Wind: W 12 mph , 19 km/h
Temperature: 43°F , 6°C
Wind Chill: 37°F , 3°C
Dew Point: 34°F , 1°C
Humidity: 71%
Barometer: 29.94 inHg , 1013.9 hPa
Clouds: Clear
Visibility: 10 miles , 16 km
2018/02/19 03:53 KLVK 190353Z 27010KT 10SM CLR 06/01 A2994 RMK AO2 SLP138 T00610011